Limerick, Illinois
Current Conditions -  °F | °C
As of 3:55 PM on Friday 31 Oct 2014 (Local Time) from KSQI Reporting Station
Broken Clouds Broken Clouds  
Wind Chill: 35°   Ceiling: 5000
Heat Index: 43°   Visibility: 10mi
Dew Point: 21°   Wind: 18mph
Humidity: 42%   Direction: 30°NNE
Pressure: 30.32"   Gusts: 29mph
Location:  41.5481°N, 89.4519°W
Report Text: KSQI 312055Z AUTO 03016G25KT 10SM BKN050 06/M06 A3032 RMK AO1 52007
Loading
Personal Weather Stations






























Interactive Weather Map
Tropical Storm Tracking
New forecast layout! Learn more

10-Day Weather Forecast

Advertisements
Track Severe Weather on mobile